sensor_id;sensor_type;location;lat;lon;timestamp;temperature;humidity
30694;DHT22;17446;48.022;-1.740;2024-03-02T00:00:08;7.30;99.90
30694;DHT22;17446;48.022;-1.740;2024-03-02T00:02:40;7.30;99.90
30694;DHT22;17446;48.022;-1.740;2024-03-02T00:05:07;7.40;99.90
30694;DHT22;17446;48.022;-1.740;2024-03-02T00:07:33;7.40;99.90
30694;DHT22;17446;48.022;-1.740;2024-03-02T00:09:59;7.40;99.90
30694;DHT22;17446;48.022;-1.740;2024-03-02T00:12:25;7.40;99.90
30694;DHT22;17446;48.022;-1.740;2024-03-02T00:14:51;7.40;99.90
30694;DHT22;17446;48.022;-1.740;2024-03-02T00:17:25;7.40;99.90
30694;DHT22;17446;48.022;-1.740;2024-03-02T00:19:53;7.40;99.90
30694;DHT22;17446;48.022;-1.740;2024-03-02T00:22:18;7.40;99.90
30694;DHT22;17446;48.022;-1.740;2024-03-02T00:24:44;7.30;99.90
30694;DHT22;17446;48.022;-1.740;2024-03-02T00:27:12;7.40;99.90
30694;DHT22;17446;48.022;-1.740;2024-03-02T00:29:40;7.40;99.90
30694;DHT22;17446;48.022;-1.740;2024-03-02T00:32:14;7.30;99.90
30694;DHT22;17446;48.022;-1.740;2024-03-02T00:34:41;7.40;99.90
30694;DHT22;17446;48.022;-1.740;2024-03-02T00:37:06;7.40;99.90
30694;DHT22;17446;48.022;-1.740;2024-03-02T00:39:32;7.40;99.90
30694;DHT22;17446;48.022;-1.740;2024-03-02T00:41:58;7.50;99.90
30694;DHT22;17446;48.022;-1.740;2024-03-02T00:44:25;7.50;99.90
30694;DHT22;17446;48.022;-1.740;2024-03-02T00:46:52;7.50;99.90
30694;DHT22;17446;48.022;-1.740;2024-03-02T00:49:23;7.50;99.90
30694;DHT22;17446;48.022;-1.740;2024-03-02T00:51:50;7.50;99.90
30694;DHT22;17446;48.022;-1.740;2024-03-02T00:54:20;7.60;99.90
30694;DHT22;17446;48.022;-1.740;2024-03-02T00:56:47;7.60;99.90
30694;DHT22;17446;48.022;-1.740;2024-03-02T00:59:13;7.60;99.90
30694;DHT22;17446;48.022;-1.740;2024-03-02T01:01:38;7.60;99.90
30694;DHT22;17446;48.022;-1.740;2024-03-02T01:04:04;7.60;99.90
30694;DHT22;17446;48.022;-1.740;2024-03-02T01:06:30;7.60;99.90
30694;DHT22;17446;48.022;-1.740;2024-03-02T01:08:56;7.60;99.90
30694;DHT22;17446;48.022;-1.740;2024-03-02T01:11:21;7.70;99.90
30694;DHT22;17446;48.022;-1.740;2024-03-02T01:13:47;7.70;99.90
30694;DHT22;17446;48.022;-1.740;2024-03-02T01:16:13;7.70;99.90
30694;DHT22;17446;48.022;-1.740;2024-03-02T01:18:39;7.70;99.90
30694;DHT22;17446;48.022;-1.740;2024-03-02T01:21:05;7.60;99.90
30694;DHT22;17446;48.022;-1.740;2024-03-02T01:23:30;7.60;99.90
30694;DHT22;17446;48.022;-1.740;2024-03-02T01:25:56;7.50;99.90
30694;DHT22;17446;48.022;-1.740;2024-03-02T01:28:21;7.50;99.90
30694;DHT22;17446;48.022;-1.740;2024-03-02T01:30:47;7.50;99.90
30694;DHT22;17446;48.022;-1.740;2024-03-02T01:33:13;7.50;99.90
30694;DHT22;17446;48.022;-1.740;2024-03-02T01:35:39;7.40;99.90
30694;DHT22;17446;48.022;-1.740;2024-03-02T01:38:05;7.40;99.90
30694;DHT22;17446;48.022;-1.740;2024-03-02T01:40:34;7.40;99.90
30694;DHT22;17446;48.022;-1.740;2024-03-02T01:43:00;7.40;99.90
30694;DHT22;17446;48.022;-1.740;2024-03-02T01:45:26;7.40;99.90
30694;DHT22;17446;48.022;-1.740;2024-03-02T01:47:52;7.40;99.90
30694;DHT22;17446;48.022;-1.740;2024-03-02T01:52:52;7.40;99.90
30694;DHT22;17446;48.022;-1.740;2024-03-02T01:55:18;7.40;99.90
30694;DHT22;17446;48.022;-1.740;2024-03-02T01:57:43;7.50;99.90
30694;DHT22;17446;48.022;-1.740;2024-03-02T02:00:10;7.40;99.90
30694;DHT22;17446;48.022;-1.740;2024-03-02T02:02:36;7.50;99.90
30694;DHT22;17446;48.022;-1.740;2024-03-02T02:05:02;7.50;99.90
30694;DHT22;17446;48.022;-1.740;2024-03-02T02:07:28;7.50;99.90
30694;DHT22;17446;48.022;-1.740;2024-03-02T02:09:54;7.50;99.90
30694;DHT22;17446;48.022;-1.740;2024-03-02T02:12:20;7.50;99.90
30694;DHT22;17446;48.022;-1.740;2024-03-02T02:14:49;7.60;99.90
30694;DHT22;17446;48.022;-1.740;2024-03-02T02:17:16;7.60;99.90
30694;DHT22;17446;48.022;-1.740;2024-03-02T02:19:42;7.60;99.90
30694;DHT22;17446;48.022;-1.740;2024-03-02T02:22:08;7.60;99.90
30694;DHT22;17446;48.022;-1.740;2024-03-02T02:24:34;7.70;99.90
30694;DHT22;17446;48.022;-1.740;2024-03-02T02:26:59;7.60;99.90
30694;DHT22;17446;48.022;-1.740;2024-03-02T02:29:25;7.70;99.90
30694;DHT22;17446;48.022;-1.740;2024-03-02T02:31:50;7.80;99.90
30694;DHT22;17446;48.022;-1.740;2024-03-02T02:34:16;7.80;99.90
30694;DHT22;17446;48.022;-1.740;2024-03-02T02:36:42;7.80;99.90
30694;DHT22;17446;48.022;-1.740;2024-03-02T02:39:11;7.80;99.90
30694;DHT22;17446;48.022;-1.740;2024-03-02T02:41:38;7.70;99.90
30694;DHT22;17446;48.022;-1.740;2024-03-02T02:44:04;7.80;99.90
30694;DHT22;17446;48.022;-1.740;2024-03-02T02:46:30;7.70;99.90
30694;DHT22;17446;48.022;-1.740;2024-03-02T02:48:56;7.70;99.90
30694;DHT22;17446;48.022;-1.740;2024-03-02T02:51:21;7.70;99.90
30694;DHT22;17446;48.022;-1.740;2024-03-02T02:53:47;7.70;99.90
30694;DHT22;17446;48.022;-1.740;2024-03-02T02:56:12;7.60;99.90
30694;DHT22;17446;48.022;-1.740;2024-03-02T02:58:40;7.60;99.90
30694;DHT22;17446;48.022;-1.740;2024-03-02T03:01:07;7.60;99.90
30694;DHT22;17446;48.022;-1.740;2024-03-02T03:03:33;7.60;99.90
30694;DHT22;17446;48.022;-1.740;2024-03-02T03:05:58;7.50;99.90
30694;DHT22;17446;48.022;-1.740;2024-03-02T03:08:24;7.50;99.90
30694;DHT22;17446;48.022;-1.740;2024-03-02T03:10:50;7.50;99.90
30694;DHT22;17446;48.022;-1.740;2024-03-02T03:13:15;7.50;99.90
30694;DHT22;17446;48.022;-1.740;2024-03-02T03:15:41;7.50;99.90
30694;DHT22;17446;48.022;-1.740;2024-03-02T03:18:06;7.50;99.90
30694;DHT22;17446;48.022;-1.740;2024-03-02T03:20:36;7.50;99.90
30694;DHT22;17446;48.022;-1.740;2024-03-02T03:23:01;7.40;99.90
30694;DHT22;17446;48.022;-1.740;2024-03-02T03:25:27;7.40;99.90
30694;DHT22;17446;48.022;-1.740;2024-03-02T03:27:52;7.40;99.90
30694;DHT22;17446;48.022;-1.740;2024-03-02T03:30:18;7.40;99.90
30694;DHT22;17446;48.022;-1.740;2024-03-02T03:32:44;7.40;99.90
30694;DHT22;17446;48.022;-1.740;2024-03-02T03:35:10;7.40;99.90
30694;DHT22;17446;48.022;-1.740;2024-03-02T03:37:37;7.40;99.90
30694;DHT22;17446;48.022;-1.740;2024-03-02T03:40:04;7.40;99.90
30694;DHT22;17446;48.022;-1.740;2024-03-02T03:42:36;7.50;99.90
30694;DHT22;17446;48.022;-1.740;2024-03-02T03:45:02;7.50;99.90
30694;DHT22;17446;48.022;-1.740;2024-03-02T03:47:27;7.50;99.90
30694;DHT22;17446;48.022;-1.740;2024-03-02T03:49:53;7.50;99.90
30694;DHT22;17446;48.022;-1.740;2024-03-02T03:52:19;7.60;99.90
30694;DHT22;17446;48.022;-1.740;2024-03-02T03:54:44;7.70;99.90
30694;DHT22;17446;48.022;-1.740;2024-03-02T03:57:10;7.70;99.90
30694;DHT22;17446;48.022;-1.740;2024-03-02T03:59:35;7.70;99.90
30694;DHT22;17446;48.022;-1.740;2024-03-02T04:02:03;7.70;99.90
30694;DHT22;17446;48.022;-1.740;2024-03-02T04:04:28;7.70;99.90
30694;DHT22;17446;48.022;-1.740;2024-03-02T04:06:54;7.70;99.90
30694;DHT22;17446;48.022;-1.740;2024-03-02T04:09:20;7.70;99.90
30694;DHT22;17446;48.022;-1.740;2024-03-02T04:11:45;7.70;99.90
30694;DHT22;17446;48.022;-1.740;2024-03-02T04:14:11;7.60;99.90
30694;DHT22;17446;48.022;-1.740;2024-03-02T04:16:38;7.60;99.90
30694;DHT22;17446;48.022;-1.740;2024-03-02T04:19:04;7.60;99.90
30694;DHT22;17446;48.022;-1.740;2024-03-02T04:21:30;7.50;99.90
30694;DHT22;17446;48.022;-1.740;2024-03-02T04:23:55;7.50;99.90
30694;DHT22;17446;48.022;-1.740;2024-03-02T04:26:25;7.50;99.90
30694;DHT22;17446;48.022;-1.740;2024-03-02T04:28:54;7.50;99.90
30694;DHT22;17446;48.022;-1.740;2024-03-02T04:31:20;7.50;99.90
30694;DHT22;17446;48.022;-1.740;2024-03-02T04:33:45;7.50;99.90
30694;DHT22;17446;48.022;-1.740;2024-03-02T04:36:11;7.50;99.90
30694;DHT22;17446;48.022;-1.740;2024-03-02T04:38:38;7.50;99.90
30694;DHT22;17446;48.022;-1.740;2024-03-02T04:41:07;7.50;99.90
30694;DHT22;17446;48.022;-1.740;2024-03-02T04:43:33;7.40;99.90
30694;DHT22;17446;48.022;-1.740;2024-03-02T04:45:59;7.40;99.90
30694;DHT22;17446;48.022;-1.740;2024-03-02T04:48:24;7.40;99.90
30694;DHT22;17446;48.022;-1.740;2024-03-02T04:50:50;7.30;99.90
30694;DHT22;17446;48.022;-1.740;2024-03-02T04:53:16;7.30;99.90
30694;DHT22;17446;48.022;-1.740;2024-03-02T04:55:41;7.30;99.90
30694;DHT22;17446;48.022;-1.740;2024-03-02T04:58:07;7.30;99.90
30694;DHT22;17446;48.022;-1.740;2024-03-02T05:00:33;7.30;99.90
30694;DHT22;17446;48.022;-1.740;2024-03-02T05:02:59;7.30;99.90
30694;DHT22;17446;48.022;-1.740;2024-03-02T05:05:24;7.30;99.90
30694;DHT22;17446;48.022;-1.740;2024-03-02T05:07:50;7.30;99.90
30694;DHT22;17446;48.022;-1.740;2024-03-02T05:10:16;7.30;99.90
30694;DHT22;17446;48.022;-1.740;2024-03-02T05:12:42;7.30;99.90
30694;DHT22;17446;48.022;-1.740;2024-03-02T05:15:08;7.40;99.90
30694;DHT22;17446;48.022;-1.740;2024-03-02T05:17:38;7.40;99.90
30694;DHT22;17446;48.022;-1.740;2024-03-02T05:20:05;7.50;99.90
30694;DHT22;17446;48.022;-1.740;2024-03-02T05:22:33;7.50;99.90
30694;DHT22;17446;48.022;-1.740;2024-03-02T05:24:59;7.60;99.90
30694;DHT22;17446;48.022;-1.740;2024-03-02T05:27:26;7.70;99.90
30694;DHT22;17446;48.022;-1.740;2024-03-02T05:29:52;7.70;99.90
30694;DHT22;17446;48.022;-1.740;2024-03-02T05:32:17;7.80;99.90
30694;DHT22;17446;48.022;-1.740;2024-03-02T05:34:43;7.80;99.90
30694;DHT22;17446;48.022;-1.740;2024-03-02T05:37:09;7.80;99.90
30694;DHT22;17446;48.022;-1.740;2024-03-02T05:39:34;7.80;99.90
30694;DHT22;17446;48.022;-1.740;2024-03-02T05:42:00;7.90;99.90
30694;DHT22;17446;48.022;-1.740;2024-03-02T05:44:25;7.80;99.90
30694;DHT22;17446;48.022;-1.740;2024-03-02T05:46:51;7.80;99.90
30694;DHT22;17446;48.022;-1.740;2024-03-02T05:49:17;7.80;99.90
30694;DHT22;17446;48.022;-1.740;2024-03-02T05:51:45;7.80;99.90
30694;DHT22;17446;48.022;-1.740;2024-03-02T05:54:11;7.70;99.90
30694;DHT22;17446;48.022;-1.740;2024-03-02T05:56:36;7.60;99.90
30694;DHT22;17446;48.022;-1.740;2024-03-02T05:59:02;7.60;99.90
30694;DHT22;17446;48.022;-1.740;2024-03-02T06:01:47;7.60;99.90
30694;DHT22;17446;48.022;-1.740;2024-03-02T06:04:14;7.60;99.90
30694;DHT22;17446;48.022;-1.740;2024-03-02T06:06:40;7.70;99.90
30694;DHT22;17446;48.022;-1.740;2024-03-02T06:09:06;7.70;99.90
30694;DHT22;17446;48.022;-1.740;2024-03-02T06:11:38;7.70;99.90
30694;DHT22;17446;48.022;-1.740;2024-03-02T06:14:05;7.70;99.90
30694;DHT22;17446;48.022;-1.740;2024-03-02T06:16:31;7.70;99.90
30694;DHT22;17446;48.022;-1.740;2024-03-02T06:18:57;7.70;99.90
30694;DHT22;17446;48.022;-1.740;2024-03-02T06:21:27;7.70;99.90
30694;DHT22;17446;48.022;-1.740;2024-03-02T06:23:53;7.80;99.90
30694;DHT22;17446;48.022;-1.740;2024-03-02T06:26:18;7.80;99.90
30694;DHT22;17446;48.022;-1.740;2024-03-02T06:28:45;7.80;99.90
30694;DHT22;17446;48.022;-1.740;2024-03-02T06:31:11;7.80;99.90
30694;DHT22;17446;48.022;-1.740;2024-03-02T06:33:36;7.80;99.90
30694;DHT22;17446;48.022;-1.740;2024-03-02T06:36:02;7.70;99.90
30694;DHT22;17446;48.022;-1.740;2024-03-02T06:38:28;7.80;99.90
30694;DHT22;17446;48.022;-1.740;2024-03-02T06:40:54;7.80;99.90
30694;DHT22;17446;48.022;-1.740;2024-03-02T06:43:21;7.80;99.90
30694;DHT22;17446;48.022;-1.740;2024-03-02T06:45:50;7.80;99.90
30694;DHT22;17446;48.022;-1.740;2024-03-02T06:48:16;7.70;99.90
30694;DHT22;17446;48.022;-1.740;2024-03-02T06:50:46;7.70;99.90
30694;DHT22;17446;48.022;-1.740;2024-03-02T06:53:13;7.70;99.90
30694;DHT22;17446;48.022;-1.740;2024-03-02T06:55:38;7.70;99.90
30694;DHT22;17446;48.022;-1.740;2024-03-02T06:58:04;7.70;99.90
30694;DHT22;17446;48.022;-1.740;2024-03-02T07:00:30;7.70;99.90
30694;DHT22;17446;48.022;-1.740;2024-03-02T07:02:55;7.70;99.90
30694;DHT22;17446;48.022;-1.740;2024-03-02T07:05:21;7.60;99.90
30694;DHT22;17446;48.022;-1.740;2024-03-02T07:07:47;7.60;99.90
30694;DHT22;17446;48.022;-1.740;2024-03-02T07:10:12;7.60;99.90
30694;DHT22;17446;48.022;-1.740;2024-03-02T07:12:38;7.60;99.90
30694;DHT22;17446;48.022;-1.740;2024-03-02T07:15:04;7.60;99.90
30694;DHT22;17446;48.022;-1.740;2024-03-02T07:17:30;7.60;99.90
30694;DHT22;17446;48.022;-1.740;2024-03-02T07:19:56;7.60;99.90
30694;DHT22;17446;48.022;-1.740;2024-03-02T07:22:22;7.60;99.90
30694;DHT22;17446;48.022;-1.740;2024-03-02T07:24:48;7.60;99.90
30694;DHT22;17446;48.022;-1.740;2024-03-02T07:27:15;7.50;99.90
30694;DHT22;17446;48.022;-1.740;2024-03-02T07:29:41;7.50;99.90
30694;DHT22;17446;48.022;-1.740;2024-03-02T07:32:08;7.50;99.90
30694;DHT22;17446;48.022;-1.740;2024-03-02T07:34:33;7.50;99.90
30694;DHT22;17446;48.022;-1.740;2024-03-02T07:36:59;7.50;99.90
30694;DHT22;17446;48.022;-1.740;2024-03-02T07:39:25;7.50;99.90
30694;DHT22;17446;48.022;-1.740;2024-03-02T07:41:51;7.50;99.90
30694;DHT22;17446;48.022;-1.740;2024-03-02T07:44:17;7.60;99.90
30694;DHT22;17446;48.022;-1.740;2024-03-02T07:46:45;7.60;99.90
30694;DHT22;17446;48.022;-1.740;2024-03-02T07:49:12;7.60;99.90
30694;DHT22;17446;48.022;-1.740;2024-03-02T07:51:38;7.70;99.90
30694;DHT22;17446;48.022;-1.740;2024-03-02T07:54:04;7.70;99.90
30694;DHT22;17446;48.022;-1.740;2024-03-02T07:56:29;7.80;99.90
30694;DHT22;17446;48.022;-1.740;2024-03-02T07:58:55;7.90;99.90
30694;DHT22;17446;48.022;-1.740;2024-03-02T08:01:23;7.90;99.90
30694;DHT22;17446;48.022;-1.740;2024-03-02T08:03:48;8.00;99.90
30694;DHT22;17446;48.022;-1.740;2024-03-02T08:06:16;8.00;99.90
30694;DHT22;17446;48.022;-1.740;2024-03-02T08:08:41;8.10;99.90
30694;DHT22;17446;48.022;-1.740;2024-03-02T08:11:07;8.10;99.90
30694;DHT22;17446;48.022;-1.740;2024-03-02T08:13:33;8.10;99.90
30694;DHT22;17446;48.022;-1.740;2024-03-02T08:15:58;8.10;99.90
30694;DHT22;17446;48.022;-1.740;2024-03-02T08:18:24;8.10;99.90
30694;DHT22;17446;48.022;-1.740;2024-03-02T08:20:50;8.10;99.90
30694;DHT22;17446;48.022;-1.740;2024-03-02T08:23:16;8.10;99.90
30694;DHT22;17446;48.022;-1.740;2024-03-02T08:25:42;8.20;99.90
30694;DHT22;17446;48.022;-1.740;2024-03-02T08:28:07;8.20;99.90
30694;DHT22;17446;48.022;-1.740;2024-03-02T08:30:33;8.20;99.90
30694;DHT22;17446;48.022;-1.740;2024-03-02T08:32:59;8.20;99.90
30694;DHT22;17446;48.022;-1.740;2024-03-02T08:35:26;8.30;99.90
30694;DHT22;17446;48.022;-1.740;2024-03-02T08:37:51;8.20;99.90
30694;DHT22;17446;48.022;-1.740;2024-03-02T08:40:17;8.20;99.90
30694;DHT22;17446;48.022;-1.740;2024-03-02T08:42:43;8.20;99.90
30694;DHT22;17446;48.022;-1.740;2024-03-02T08:45:09;8.20;99.90
30694;DHT22;17446;48.022;-1.740;2024-03-02T08:47:34;8.10;99.90
30694;DHT22;17446;48.022;-1.740;2024-03-02T08:50:00;8.10;99.90
30694;DHT22;17446;48.022;-1.740;2024-03-02T08:52:26;8.10;99.90
30694;DHT22;17446;48.022;-1.740;2024-03-02T08:54:52;8.10;99.90
30694;DHT22;17446;48.022;-1.740;2024-03-02T08:57:18;8.10;99.90
30694;DHT22;17446;48.022;-1.740;2024-03-02T08:59:43;8.00;99.90
30694;DHT22;17446;48.022;-1.740;2024-03-02T09:02:09;8.00;99.90
30694;DHT22;17446;48.022;-1.740;2024-03-02T09:04:35;8.00;99.90
30694;DHT22;17446;48.022;-1.740;2024-03-02T09:07:01;8.10;99.90
30694;DHT22;17446;48.022;-1.740;2024-03-02T09:09:26;8.10;99.90
30694;DHT22;17446;48.022;-1.740;2024-03-02T09:11:52;8.00;99.90
30694;DHT22;17446;48.022;-1.740;2024-03-02T09:14:20;8.00;99.90
30694;DHT22;17446;48.022;-1.740;2024-03-02T09:16:46;8.10;99.90
30694;DHT22;17446;48.022;-1.740;2024-03-02T09:19:12;8.10;99.90
30694;DHT22;17446;48.022;-1.740;2024-03-02T09:21:37;8.10;99.90
30694;DHT22;17446;48.022;-1.740;2024-03-02T09:24:03;8.10;99.90
30694;DHT22;17446;48.022;-1.740;2024-03-02T09:26:29;8.10;99.90
30694;DHT22;17446;48.022;-1.740;2024-03-02T09:28:55;8.20;99.90
30694;DHT22;17446;48.022;-1.740;2024-03-02T09:31:22;8.20;99.90
30694;DHT22;17446;48.022;-1.740;2024-03-02T09:33:48;8.30;99.90
30694;DHT22;17446;48.022;-1.740;2024-03-02T09:36:17;8.30;99.90
30694;DHT22;17446;48.022;-1.740;2024-03-02T09:38:44;8.30;99.90
30694;DHT22;17446;48.022;-1.740;2024-03-02T09:41:09;8.40;99.90
30694;DHT22;17446;48.022;-1.740;2024-03-02T09:43:35;8.40;99.90
30694;DHT22;17446;48.022;-1.740;2024-03-02T09:46:01;8.50;99.90
30694;DHT22;17446;48.022;-1.740;2024-03-02T09:48:27;8.50;99.90
30694;DHT22;17446;48.022;-1.740;2024-03-02T09:50:52;8.50;99.90
30694;DHT22;17446;48.022;-1.740;2024-03-02T09:53:18;8.50;99.90
30694;DHT22;17446;48.022;-1.740;2024-03-02T09:55:47;8.60;99.90
30694;DHT22;17446;48.022;-1.740;2024-03-02T09:58:13;8.60;99.90
30694;DHT22;17446;48.022;-1.740;2024-03-02T10:00:38;8.60;99.90
30694;DHT22;17446;48.022;-1.740;2024-03-02T10:03:04;8.70;99.90
30694;DHT22;17446;48.022;-1.740;2024-03-02T10:05:33;8.70;99.90
30694;DHT22;17446;48.022;-1.740;2024-03-02T10:08:00;8.70;99.90
30694;DHT22;17446;48.022;-1.740;2024-03-02T10:10:39;8.80;99.90
30694;DHT22;17446;48.022;-1.740;2024-03-02T10:13:10;8.80;99.90
30694;DHT22;17446;48.022;-1.740;2024-03-02T10:15:37;8.90;99.90
30694;DHT22;17446;48.022;-1.740;2024-03-02T10:18:08;8.90;99.90
30694;DHT22;17446;48.022;-1.740;2024-03-02T10:20:35;8.90;99.90
30694;DHT22;17446;48.022;-1.740;2024-03-02T10:23:14;8.90;99.90
30694;DHT22;17446;48.022;-1.740;2024-03-02T10:25:41;8.90;99.90
30694;DHT22;17446;48.022;-1.740;2024-03-02T10:28:06;9.00;99.90
30694;DHT22;17446;48.022;-1.740;2024-03-02T10:30:33;8.90;99.90
30694;DHT22;17446;48.022;-1.740;2024-03-02T10:33:02;9.00;99.90
30694;DHT22;17446;48.022;-1.740;2024-03-02T10:35:29;9.00;99.90
30694;DHT22;17446;48.022;-1.740;2024-03-02T10:37:58;9.00;99.90
30694;DHT22;17446;48.022;-1.740;2024-03-02T10:40:24;9.10;99.90
30694;DHT22;17446;48.022;-1.740;2024-03-02T10:42:50;9.20;99.90
30694;DHT22;17446;48.022;-1.740;2024-03-02T10:45:20;9.30;99.90
30694;DHT22;17446;48.022;-1.740;2024-03-02T10:47:47;9.30;99.90
30694;DHT22;17446;48.022;-1.740;2024-03-02T10:50:13;9.30;99.90
30694;DHT22;17446;48.022;-1.740;2024-03-02T10:52:39;9.40;99.90
30694;DHT22;17446;48.022;-1.740;2024-03-02T10:55:06;9.40;99.90
30694;DHT22;17446;48.022;-1.740;2024-03-02T10:58:01;9.40;99.90
30694;DHT22;17446;48.022;-1.740;2024-03-02T11:00:33;9.50;99.90
30694;DHT22;17446;48.022;-1.740;2024-03-02T11:03:05;9.50;99.90
30694;DHT22;17446;48.022;-1.740;2024-03-02T11:05:38;9.60;99.90
30694;DHT22;17446;48.022;-1.740;2024-03-02T11:08:08;9.60;99.90
30694;DHT22;17446;48.022;-1.740;2024-03-02T11:10:41;9.70;99.90
30694;DHT22;17446;48.022;-1.740;2024-03-02T11:13:11;9.80;99.90
30694;DHT22;17446;48.022;-1.740;2024-03-02T11:15:40;9.90;99.90
30694;DHT22;17446;48.022;-1.740;2024-03-02T11:18:09;10.10;99.90
30694;DHT22;17446;48.022;-1.740;2024-03-02T11:20:40;10.20;99.90
30694;DHT22;17446;48.022;-1.740;2024-03-02T11:23:07;10.30;99.90
30694;DHT22;17446;48.022;-1.740;2024-03-02T11:25:33;10.30;99.90
30694;DHT22;17446;48.022;-1.740;2024-03-02T11:27:59;10.40;99.90
30694;DHT22;17446;48.022;-1.740;2024-03-02T11:33:03;10.60;99.90
30694;DHT22;17446;48.022;-1.740;2024-03-02T11:35:44;10.70;99.90
30694;DHT22;17446;48.022;-1.740;2024-03-02T11:38:14;10.80;99.90
30694;DHT22;17446;48.022;-1.740;2024-03-02T11:40:40;10.90;99.90
30694;DHT22;17446;48.022;-1.740;2024-03-02T11:43:06;11.00;99.90
30694;DHT22;17446;48.022;-1.740;2024-03-02T11:45:33;11.10;99.90
30694;DHT22;17446;48.022;-1.740;2024-03-02T11:47:59;11.20;99.90
30694;DHT22;17446;48.022;-1.740;2024-03-02T11:50:57;11.30;99.90
30694;DHT22;17446;48.022;-1.740;2024-03-02T11:53:21;11.50;99.90
30694;DHT22;17446;48.022;-1.740;2024-03-02T11:55:47;11.70;99.90
30694;DHT22;17446;48.022;-1.740;2024-03-02T11:58:15;11.90;99.90
30694;DHT22;17446;48.022;-1.740;2024-03-02T12:00:46;12.10;99.90
30694;DHT22;17446;48.022;-1.740;2024-03-02T12:03:13;12.20;99.90
30694;DHT22;17446;48.022;-1.740;2024-03-02T12:05:39;12.30;99.90
30694;DHT22;17446;48.022;-1.740;2024-03-02T12:08:06;12.40;99.90
30694;DHT22;17446;48.022;-1.740;2024-03-02T12:10:33;12.40;99.90
30694;DHT22;17446;48.022;-1.740;2024-03-02T12:13:00;12.30;99.90
30694;DHT22;17446;48.022;-1.740;2024-03-02T12:15:36;12.30;99.90
30694;DHT22;17446;48.022;-1.740;2024-03-02T12:18:02;12.30;99.90
30694;DHT22;17446;48.022;-1.740;2024-03-02T12:20:30;12.40;99.90
30694;DHT22;17446;48.022;-1.740;2024-03-02T12:22:58;12.40;99.90
30694;DHT22;17446;48.022;-1.740;2024-03-02T12:25:25;12.40;99.90
30694;DHT22;17446;48.022;-1.740;2024-03-02T12:27:54;12.30;99.90
30694;DHT22;17446;48.022;-1.740;2024-03-02T12:30:20;12.30;99.90
30694;DHT22;17446;48.022;-1.740;2024-03-02T12:32:46;12.20;99.90
30694;DHT22;17446;48.022;-1.740;2024-03-02T12:35:13;12.20;99.90
30694;DHT22;17446;48.022;-1.740;2024-03-02T12:37:46;12.20;99.90
30694;DHT22;17446;48.022;-1.740;2024-03-02T12:40:13;12.20;99.90
30694;DHT22;17446;48.022;-1.740;2024-03-02T12:42:39;12.20;99.90
30694;DHT22;17446;48.022;-1.740;2024-03-02T12:45:07;12.30;99.90
30694;DHT22;17446;48.022;-1.740;2024-03-02T12:47:34;12.50;99.90
30694;DHT22;17446;48.022;-1.740;2024-03-02T12:50:00;12.50;99.90
30694;DHT22;17446;48.022;-1.740;2024-03-02T12:52:26;12.60;99.90
30694;DHT22;17446;48.022;-1.740;2024-03-02T12:54:51;12.80;99.90
30694;DHT22;17446;48.022;-1.740;2024-03-02T12:57:18;12.80;99.90
30694;DHT22;17446;48.022;-1.740;2024-03-02T12:59:47;12.90;99.90
30694;DHT22;17446;48.022;-1.740;2024-03-02T13:02:19;12.90;99.90
30694;DHT22;17446;48.022;-1.740;2024-03-02T13:04:52;12.80;99.90
30694;DHT22;17446;48.022;-1.740;2024-03-02T13:07:20;12.60;99.90
30694;DHT22;17446;48.022;-1.740;2024-03-02T13:09:46;12.50;99.90
30694;DHT22;17446;48.022;-1.740;2024-03-02T13:12:11;12.40;99.90
30694;DHT22;17446;48.022;-1.740;2024-03-02T13:14:37;12.30;99.90
30694;DHT22;17446;48.022;-1.740;2024-03-02T13:17:03;12.30;99.90
30694;DHT22;17446;48.022;-1.740;2024-03-02T13:19:31;12.30;99.90
30694;DHT22;17446;48.022;-1.740;2024-03-02T13:21:57;12.40;99.90
30694;DHT22;17446;48.022;-1.740;2024-03-02T13:24:24;12.50;99.90
30694;DHT22;17446;48.022;-1.740;2024-03-02T13:26:54;12.60;99.90
30694;DHT22;17446;48.022;-1.740;2024-03-02T13:29:22;12.50;99.90
30694;DHT22;17446;48.022;-1.740;2024-03-02T13:31:48;12.60;99.90
30694;DHT22;17446;48.022;-1.740;2024-03-02T13:34:14;12.70;99.90
30694;DHT22;17446;48.022;-1.740;2024-03-02T13:36:39;12.80;99.90
30694;DHT22;17446;48.022;-1.740;2024-03-02T13:39:05;12.90;99.90
30694;DHT22;17446;48.022;-1.740;2024-03-02T13:41:32;13.00;99.90
30694;DHT22;17446;48.022;-1.740;2024-03-02T13:43:57;13.10;99.90
30694;DHT22;17446;48.022;-1.740;2024-03-02T13:46:26;13.30;99.90
30694;DHT22;17446;48.022;-1.740;2024-03-02T13:48:52;13.40;99.90
30694;DHT22;17446;48.022;-1.740;2024-03-02T13:51:17;13.50;99.90
30694;DHT22;17446;48.022;-1.740;2024-03-02T13:53:43;13.60;99.90
30694;DHT22;17446;48.022;-1.740;2024-03-02T13:56:09;13.60;99.90
30694;DHT22;17446;48.022;-1.740;2024-03-02T13:58:34;13.60;99.90
30694;DHT22;17446;48.022;-1.740;2024-03-02T14:01:00;13.70;99.90
30694;DHT22;17446;48.022;-1.740;2024-03-02T14:03:27;13.70;99.90
30694;DHT22;17446;48.022;-1.740;2024-03-02T14:05:53;13.70;99.90
30694;DHT22;17446;48.022;-1.740;2024-03-02T14:08:18;13.80;99.90
30694;DHT22;17446;48.022;-1.740;2024-03-02T14:10:44;13.80;99.90
30694;DHT22;17446;48.022;-1.740;2024-03-02T14:13:10;13.90;99.90
30694;DHT22;17446;48.022;-1.740;2024-03-02T14:15:35;13.90;99.90
30694;DHT22;17446;48.022;-1.740;2024-03-02T14:18:05;14.00;99.90
30694;DHT22;17446;48.022;-1.740;2024-03-02T14:20:31;14.00;99.90
30694;DHT22;17446;48.022;-1.740;2024-03-02T14:22:58;14.00;99.90
30694;DHT22;17446;48.022;-1.740;2024-03-02T14:25:24;13.90;99.90
30694;DHT22;17446;48.022;-1.740;2024-03-02T14:27:50;13.80;99.90
30694;DHT22;17446;48.022;-1.740;2024-03-02T14:30:16;13.70;99.90
30694;DHT22;17446;48.022;-1.740;2024-03-02T14:32:42;13.70;99.90
30694;DHT22;17446;48.022;-1.740;2024-03-02T14:35:07;13.70;99.90
30694;DHT22;17446;48.022;-1.740;2024-03-02T14:37:36;13.60;99.90
30694;DHT22;17446;48.022;-1.740;2024-03-02T14:40:02;13.40;99.90
30694;DHT22;17446;48.022;-1.740;2024-03-02T14:42:30;13.10;99.90
30694;DHT22;17446;48.022;-1.740;2024-03-02T14:44:57;12.90;99.90
30694;DHT22;17446;48.022;-1.740;2024-03-02T14:47:22;12.80;99.90
30694;DHT22;17446;48.022;-1.740;2024-03-02T14:49:48;12.70;99.90
30694;DHT22;17446;48.022;-1.740;2024-03-02T14:52:14;12.70;99.90
30694;DHT22;17446;48.022;-1.740;2024-03-02T14:54:39;12.60;99.90
30694;DHT22;17446;48.022;-1.740;2024-03-02T14:57:05;12.60;99.90
30694;DHT22;17446;48.022;-1.740;2024-03-02T14:59:31;12.70;99.90
30694;DHT22;17446;48.022;-1.740;2024-03-02T15:01:57;12.70;99.90
30694;DHT22;17446;48.022;-1.740;2024-03-02T15:04:22;12.80;99.90
30694;DHT22;17446;48.022;-1.740;2024-03-02T15:06:48;12.90;99.90
30694;DHT22;17446;48.022;-1.740;2024-03-02T15:09:14;12.90;99.90
30694;DHT22;17446;48.022;-1.740;2024-03-02T15:11:44;13.00;99.90
30694;DHT22;17446;48.022;-1.740;2024-03-02T15:14:09;13.00;99.90
30694;DHT22;17446;48.022;-1.740;2024-03-02T15:16:35;13.00;99.90
30694;DHT22;17446;48.022;-1.740;2024-03-02T15:19:00;13.10;99.90
30694;DHT22;17446;48.022;-1.740;2024-03-02T15:21:26;13.20;99.90
30694;DHT22;17446;48.022;-1.740;2024-03-02T15:23:52;13.30;99.90
30694;DHT22;17446;48.022;-1.740;2024-03-02T15:26:17;13.30;99.90
30694;DHT22;17446;48.022;-1.740;2024-03-02T15:28:43;13.40;99.90